Caribou, ME (04736)

3:18 PM EST on February 14, 2016 (GMT -0500)
Caribou Municipal | | Change Station
CLOSE
Current Station
Airport
Location: Caribou,
Elevation: 623 ft
Nearby Weather Stations

Elev 623 ft 46.87 °N, 68.02 °W | Updated 24 minutes ago

Partly Cloudy
Partly Cloudy
2 °F
Feels Like -14 °F
N
10
Wind Variable Wind from West
Gusts 20 mph

Today
High -- | Low -- °F
--% Chance of Precip.
Yesterday
High -- | Low -- °F
Precip. -- in
Pressure 30.11 in
Visibility 10.0 miles
Clouds Few 3500 ft
Windchill -14 °F
Dew Point -13 °F
Humidity 50%
Rainfall 0.00 in
Snow Depth Not available.
6:38 AM 4:54 PM
Waxing Crescent, 45% visible
METAR KCAR 141954Z AUTO 27009G17KT 230V310 10SM FEW035 M17/M25 A3004 RMK AO2 SLP194 T11671250
Pressure 30.11 in
Visibility 10.0 miles
Clouds Few 3500 ft
Windchill -14 °F
Dew Point -13 °F
Humidity 50%
Rainfall 0.00 in
Snow Depth Not available.
6:38 AM 4:54 PM
Waxing Crescent, 45% visible
METAR KCAR 141954Z AUTO 27009G17KT 230V310 10SM FEW035 M17/M25 A3004 RMK AO2 SLP194 T11671250

10-Day Weather Forecast

Almanac

Astronomy

Feb. 14, 2016 Rise Set
Actual Time
Civil Twilight
Nautical Twilight
Astronomical Twilight
Moon
Length of Visible Light
Length of Day
Tomorrow will be .
, % of the Moon is Illuminated

Today's Extremes

State Highs State Lows

Community

WunderPhotos

Upload Photos

1,892,880 photos uploaded!

WunderBlog® & News

Nearby

Air Quality

  Air Quality AQ Index Pollutant
Not available.

Snow Depth

Station Depth Elevation

Earthquake Activity

City Distance Mag. Time & Date
Minimum magnitude displayed is 2.5.

Coastal Water Temperatures

Place Temperature

Stations

Nearby Weather Stations

Station Location Temp. Windchill Dew Point Humidity Wind Precip. Elev Updated Type
                   

Watches & Warnings

There are currently no watches in effect.